Página principal
METAR-TAF:

METAR-TAF

Aeroportos :

Aeroporto Internacional Henri Coandă

Bucareste, Roménia

latitude: 44-33N, longitude: 026-06E, altura: 95 m

Observação actual do tempo

O boletim foi feito há 16 minutos, às 04:00 UTC
Vento 3 kt de nor-nordeste, variando entre norte e este
Temperatura 17°C
Humidade 77%
Pressão 1017 hPa
Visibilidade 10 km ou mais
sem nuvens abaixo de 1500 metros e sem cumulonimbus

METAR: LROP 240400Z 03003KT 360V080 CAVOK 17/13 Q1017 NOSIG

Hora: 07:16 (04:16 UTC)

Previsão

O boletim foi feito há 5 horas e 16 minutos, às 23:00 UTC
Previsão válida de 24 às 00 UTC a 24 às 24 UTC
Vento 4 kt com direcção variável
Visibilidade 10 km ou mais
sem nuvens abaixo de 1500 metros e sem cumulonimbus
Tornando-se
de 24 às 17 UTC a 24 às 19 UTC
Vento 10 kt de nor-nordeste

TAF: LROP 232300Z 2400/2424 VRB04KT CAVOK BECMG 2417/2419 02010KT

Observações e previsões do tempo de mais de 4000 aeroportos (mensagens METAR e TAF).

As estações disponíveis são os pontos amarelos e vermelhos sobre o mapa.

Mova o rato sobre o mapa para ver o nome da estação.

Depois clique no ponto para visualizar as observações e previsões meteorológicas.

Para alterar o mapa : clique nos botões verdes com uma cruz preta para aumentar o zoom; no botão verde com uma pitada de zoom; ou nas setas verdes para mapas adjacentes.


METAR-TAF: